createdAt,value
2022-12-04T00:01:12.249Z,101926.47
2022-12-04T00:03:39.131Z,101928.94
2022-12-04T00:06:12.264Z,101928.94
2022-12-04T00:08:39.656Z,101919.22
2022-12-04T00:11:07.851Z,101926.00
2022-12-04T00:13:35.353Z,101921.78
2022-12-04T00:16:05.024Z,101926.38
2022-12-04T00:18:31.713Z,101925.59
2022-12-04T00:20:58.753Z,101916.84
2022-12-04T00:23:25.849Z,101911.19
2022-12-04T00:25:53.374Z,101910.19
2022-12-04T00:28:20.693Z,101911.06
2022-12-04T00:30:47.233Z,101910.44
2022-12-04T00:33:13.907Z,101896.81
2022-12-04T00:35:40.918Z,101903.75
2022-12-04T00:38:07.621Z,101899.38
2022-12-04T00:40:34.882Z,101900.16
2022-12-04T00:43:02.098Z,101891.44
2022-12-04T00:45:31.239Z,101900.69
2022-12-04T00:47:58.525Z,101902.63
2022-12-04T00:50:25.147Z,101896.56
2022-12-04T00:52:52.189Z,101899.91
2022-12-04T00:55:19.596Z,101892.50
2022-12-04T00:57:47.159Z,101902.22
2022-12-04T01:00:14.078Z,101903.03
2022-12-04T01:02:41.465Z,101899.78
2022-12-04T01:05:08.752Z,101891.19
2022-12-04T01:07:35.553Z,101898.75
2022-12-04T01:10:02.256Z,101894.78
2022-12-04T01:12:29.344Z,101894.13
2022-12-04T01:14:56.535Z,101891.44
2022-12-04T01:17:23.608Z,101893.22
2022-12-04T01:19:50.712Z,101889.91
2022-12-04T01:22:17.254Z,101886.53
2022-12-04T01:24:44.333Z,101892.34
2022-12-04T01:27:10.905Z,101884.25
2022-12-04T01:29:37.843Z,101890.31
2022-12-04T01:32:04.833Z,101895.56
2022-12-04T01:34:32.014Z,101897.34
2022-12-04T01:36:59.224Z,101889.41
2022-12-04T01:39:25.782Z,101892.88
2022-12-04T01:41:52.690Z,101885.81
2022-12-04T01:44:24.058Z,101889.41
2022-12-04T01:46:54.977Z,101895.31
2022-12-04T01:49:26.494Z,101884.91
2022-12-04T01:51:59.031Z,101887.38
2022-12-04T01:54:30.483Z,101882.09
2022-12-04T01:57:06.238Z,101893.41
2022-12-04T01:59:58.488Z,101890.97
2022-12-04T02:02:30.158Z,101890.19
2022-12-04T02:04:56.799Z,101891.72
2022-12-04T02:07:24.132Z,101896.09
2022-12-04T02:09:56.019Z,101904.03
2022-12-04T02:12:33.611Z,101899.91
2022-12-04T02:15:24.942Z,101908.00
2022-12-04T02:18:07.219Z,101896.81
2022-12-04T02:20:40.900Z,101896.81
2022-12-04T02:23:20.140Z,101900.16
2022-12-04T02:26:05.146Z,101900.16
2022-12-04T02:28:46.812Z,101898.34
2022-12-04T02:31:18.441Z,101899.25
2022-12-04T02:34:09.996Z,101893.00
2022-12-04T02:36:43.045Z,101895.56
2022-12-04T02:39:24.981Z,101887.88
2022-12-04T02:41:59.678Z,101888.28
2022-12-04T02:44:33.302Z,101885.56
2022-12-04T02:47:07.854Z,101877.09
2022-12-04T02:49:40.872Z,101884.00
2022-12-04T02:52:11.965Z,101881.31
2022-12-04T02:54:48.308Z,101875.06
2022-12-04T02:57:21.835Z,101867.09
2022-12-04T02:59:50.674Z,101868.91
2022-12-04T03:02:25.497Z,101869.69
2022-12-04T03:04:56.216Z,101874.81
2022-12-04T03:07:31.786Z,101876.59
2022-12-04T03:10:08.936Z,101871.59
2022-12-04T03:12:56.368Z,101860.44
2022-12-04T03:15:41.518Z,101861.19
2022-12-04T03:18:17.572Z,101867.34
2022-12-04T03:20:48.945Z,101862.22
2022-12-04T03:23:27.189Z,101859.66
2022-12-04T03:26:08.344Z,101858.00
2022-12-04T03:28:53.066Z,101855.44
2022-12-04T03:31:26.663Z,101855.53
2022-12-04T03:34:02.993Z,101849.38
2022-12-04T03:36:36.241Z,101846.94
2022-12-04T03:39:13.231Z,101849.63
2022-12-04T03:41:54.998Z,101845.50
2022-12-04T03:44:34.055Z,101849.50
2022-12-04T03:47:07.726Z,101841.69
2022-12-04T03:49:51.585Z,101851.84
2022-12-04T03:52:28.166Z,101850.28
2022-12-04T03:55:03.179Z,101854.78
2022-12-04T03:57:34.782Z,101852.22
2022-12-04T04:00:16.861Z,101861.69
2022-12-04T04:02:52.423Z,101854.53
2022-12-04T04:05:20.429Z,101858.09
2022-12-04T04:07:51.971Z,101859.53
2022-12-04T04:10:26.552Z,101856.72
2022-12-04T04:13:22.311Z,101855.59
2022-12-04T04:16:12.111Z,101853.91
2022-12-04T04:19:00.985Z,101853.69
2022-12-04T04:21:50.953Z,101853.16
2022-12-04T04:24:37.226Z,101850.72
2022-12-04T04:27:04.945Z,101852.50
2022-12-04T04:29:34.228Z,101850.78
2022-12-04T04:32:33.309Z,101854.28
2022-12-04T04:35:17.502Z,101854.28
2022-12-04T04:37:56.558Z,101850.78
2022-12-04T04:40:33.891Z,101856.06
2022-12-04T04:43:13.055Z,101855.06
2022-12-04T04:45:48.677Z,101852.75
2022-12-04T04:48:22.233Z,101852.75
2022-12-04T04:50:49.652Z,101858.63
2022-12-04T04:53:21.491Z,101849.00
2022-12-04T04:55:52.054Z,101847.59
2022-12-04T04:58:21.180Z,101852.75
2022-12-04T05:01:20.256Z,101847.81
2022-12-04T05:03:49.206Z,101843.47
2022-12-04T05:06:18.265Z,101852.22
2022-12-04T05:08:48.241Z,101855.78
2022-12-04T05:11:16.927Z,101855.03
2022-12-04T05:13:48.718Z,101852.44
2022-12-04T05:16:16.294Z,101853.44
2022-12-04T05:19:06.145Z,101856.03
2022-12-04T05:21:33.490Z,101855.47
2022-12-04T05:24:00.120Z,101856.41
2022-12-04T05:26:26.685Z,101857.28
2022-12-04T05:28:53.357Z,101863.19
2022-12-04T05:31:19.895Z,101866.53
2022-12-04T05:33:46.434Z,101878.72
2022-12-04T05:36:13.509Z,101861.66
2022-12-04T05:38:42.797Z,101868.44
2022-12-04T05:41:09.728Z,101867.41
2022-12-04T05:43:36.455Z,101870.09
2022-12-04T05:46:08.214Z,101865.75
2022-12-04T05:48:37.371Z,101872.69
2022-12-04T05:51:08.381Z,101874.50
2022-12-04T05:53:35.521Z,101864.22
2022-12-04T05:56:03.630Z,101861.78
2022-12-04T05:58:31.289Z,101865.88
2022-12-04T06:00:58.219Z,101863.31
2022-12-04T06:03:25.205Z,101860.63
2022-12-04T06:05:52.190Z,101857.28
2022-12-04T06:08:18.829Z,101855.47
2022-12-04T06:10:46.455Z,101857.06
2022-12-04T06:13:15.568Z,101852.91
2022-12-04T06:15:42.646Z,101852.00
2022-12-04T06:18:09.791Z,101858.97
2022-12-04T06:20:37.841Z,101857.28
2022-12-04T06:23:04.431Z,101861.66
2022-12-04T06:25:31.597Z,101857.28
2022-12-04T06:27:58.760Z,101866.13
2022-12-04T06:30:28.471Z,101867.78
2022-12-04T06:32:55.314Z,101863.69
2022-12-04T06:35:23.694Z,101859.31
2022-12-04T06:37:50.873Z,101862.66
2022-12-04T06:40:19.439Z,101858.53
2022-12-04T06:42:45.982Z,101863.69
2022-12-04T06:45:13.190Z,101861.25
2022-12-04T06:47:40.537Z,101861.31
2022-12-04T06:50:07.792Z,101873.28
2022-12-04T06:52:34.728Z,101864.69
2022-12-04T06:55:01.777Z,101859.97
2022-12-04T06:57:30.889Z,101871.59
2022-12-04T06:59:58.321Z,101863.16
2022-12-04T07:02:25.815Z,101868.03
2022-12-04T07:04:56.377Z,101866.25
2022-12-04T07:07:28.702Z,101871.38
2022-12-04T07:09:55.542Z,101864.44
2022-12-04T07:12:22.585Z,101865.09
2022-12-04T07:14:49.588Z,101864.44
2022-12-04T07:17:16.498Z,101877.28
2022-12-04T07:19:42.983Z,101877.19
2022-12-04T07:22:09.920Z,101876.16
2022-12-04T07:24:37.872Z,101879.63
2022-12-04T07:27:05.576Z,101874.72
2022-12-04T07:29:32.309Z,101868.81
2022-12-04T07:31:58.906Z,101880.09
2022-12-04T07:34:29.138Z,101876.66
2022-12-04T07:36:55.782Z,101880.09
2022-12-04T07:39:23.041Z,101874.97
2022-12-04T07:41:57.944Z,101879.31
2022-12-04T07:44:24.633Z,101878.56
2022-12-04T07:46:51.207Z,101874.16
2022-12-04T07:49:20.641Z,101882.13
2022-12-04T07:51:47.273Z,101881.38
2022-12-04T07:54:14.732Z,101886.50
2022-12-04T07:56:43.867Z,101884.81
2022-12-04T07:59:10.345Z,101881.38
2022-12-04T08:01:37.708Z,101884.16
2022-12-04T08:04:05.247Z,101883.94
2022-12-04T08:06:34.592Z,101892.53
2022-12-04T08:09:06.295Z,101888.16
2022-12-04T08:11:36.365Z,101887.38
2022-12-04T08:14:05.616Z,101884.81
2022-12-04T08:16:33.385Z,101895.47
2022-12-04T08:19:01.212Z,101890.44
2022-12-04T08:21:30.236Z,101898.03
2022-12-04T08:23:58.126Z,101901.59
2022-12-04T08:26:27.073Z,101893.13
2022-12-04T08:28:55.139Z,101897.50
2022-12-04T08:31:24.804Z,101895.16
2022-12-04T08:33:53.876Z,101909.00
2022-12-04T08:36:21.827Z,101902.75
2022-12-04T08:38:49.800Z,101905.44
2022-12-04T08:41:21.247Z,101905.44
2022-12-04T08:43:51.079Z,101920.59
2022-12-04T08:46:18.982Z,101918.81
2022-12-04T08:48:46.179Z,101927.28
2022-12-04T08:51:15.855Z,101923.97
2022-12-04T08:53:42.701Z,101922.41
2022-12-04T08:56:09.679Z,101924.97
2022-12-04T08:58:37.005Z,101917.91
2022-12-04T09:01:11.891Z,101931.66
2022-12-04T09:03:39.559Z,101917.78
2022-12-04T09:06:07.096Z,101923.72
2022-12-04T09:08:34.752Z,101924.84
2022-12-04T09:11:11.003Z,101920.59
2022-12-04T09:13:38.452Z,101920.47
2022-12-04T09:16:11.271Z,101916.00
2022-12-04T09:18:39.080Z,101911.00
2022-12-04T09:21:08.487Z,101919.56
2022-12-04T09:23:37.816Z,101922.16
2022-12-04T09:26:06.742Z,101912.66
2022-12-04T09:28:33.454Z,101915.22
2022-12-04T09:31:05.109Z,101918.69
2022-12-04T09:33:33.007Z,101924.97
2022-12-04T09:36:06.890Z,101917.25
2022-12-04T09:38:37.597Z,101913.91
2022-12-04T09:41:25.406Z,101917.75
2022-12-04T09:44:02.170Z,101919.53
2022-12-04T09:46:37.417Z,101919.00
2022-12-04T09:49:23.950Z,101912.94
2022-12-04T09:51:52.434Z,101908.06
2022-12-04T09:54:21.176Z,101913.31
2022-12-04T09:56:54.811Z,101907.94
2022-12-04T09:59:25.614Z,101910.50
2022-12-04T10:02:12.635Z,101907.06
2022-12-04T10:04:39.658Z,101904.75
2022-12-04T10:07:48.049Z,101908.97
2022-12-04T10:10:30.177Z,101903.59
2022-12-04T10:13:03.585Z,101898.97
2022-12-04T10:15:36.602Z,101901.69
2022-12-04T10:18:46.348Z,101894.63
2022-12-04T10:21:43.661Z,101908.47
2022-12-04T10:24:41.972Z,101913.63
2022-12-04T10:27:30.804Z,101905.03
2022-12-04T10:30:02.883Z,101904.25
2022-12-04T10:32:34.695Z,101904.25
2022-12-04T10:35:26.958Z,101894.50
2022-12-04T10:38:23.577Z,101906.56
2022-12-04T10:41:03.309Z,101909.00
2022-12-04T10:43:29.758Z,101904.00
2022-12-04T10:45:57.198Z,101906.81
2022-12-04T10:48:35.740Z,101911.94
2022-12-04T10:51:03.289Z,101902.34
2022-12-04T10:53:34.840Z,101907.59
2022-12-04T10:56:20.089Z,101902.59
2022-12-04T10:59:06.103Z,101899.34
2022-12-04T11:01:35.704Z,101893.56
2022-12-04T11:04:10.115Z,101890.19
2022-12-04T11:06:38.124Z,101897.13
2022-12-04T11:09:05.058Z,101887.50
2022-12-04T11:11:34.135Z,101887.88
2022-12-04T11:14:22.763Z,101881.81
2022-12-04T11:17:00.536Z,101886.84
2022-12-04T11:19:32.601Z,101887.09
2022-12-04T11:22:09.003Z,101885.44
2022-12-04T11:24:39.531Z,101889.00
2022-12-04T11:27:08.219Z,101890.81
2022-12-04T11:29:43.418Z,101885.00
2022-12-04T11:32:22.315Z,101882.56
2022-12-04T11:34:52.241Z,101878.28
2022-12-04T11:37:24.912Z,101882.81
2022-12-04T11:39:53.757Z,101871.63
2022-12-04T11:42:25.376Z,101870.16
2022-12-04T11:45:04.180Z,101857.97
2022-12-04T11:47:33.848Z,101856.31
2022-12-04T11:50:11.411Z,101859.75
2022-12-04T11:53:14.465Z,101854.63
2022-12-04T11:55:50.184Z,101841.69
2022-12-04T11:58:36.418Z,101837.66
2022-12-04T12:01:38.320Z,101833.63
2022-12-04T12:04:48.239Z,101830.50
2022-12-04T12:07:23.823Z,101817.78
2022-12-04T12:10:32.590Z,101815.75
2022-12-04T12:13:23.565Z,101816.91
2022-12-04T12:16:27.749Z,101815.22
2022-12-04T12:19:35.381Z,101823.81
2022-12-04T12:22:06.828Z,101810.19
2022-12-04T12:24:51.308Z,101813.78
2022-12-04T12:27:46.288Z,101821.06
2022-12-04T12:30:18.245Z,101813.34
2022-12-04T12:33:06.028Z,101818.50
2022-12-04T12:35:47.986Z,101816.91
2022-12-04T12:38:22.013Z,101812.56
2022-12-04T12:41:00.104Z,101815.13
2022-12-04T12:43:33.325Z,101804.19
2022-12-04T12:46:06.721Z,101809.69
2022-12-04T12:49:00.052Z,101802.88
2022-12-04T12:51:30.752Z,101814.03
2022-12-04T12:54:09.739Z,101808.09
2022-12-04T12:56:47.794Z,101806.56
2022-12-04T12:59:20.360Z,101794.38
2022-12-04T13:02:12.333Z,101797.81
2022-12-04T13:04:42.590Z,101804.22
2022-12-04T13:07:42.615Z,101810.91
2022-12-04T13:10:25.201Z,101817.63
2022-12-04T13:13:08.899Z,101798.03
2022-12-04T13:16:01.709Z,101796.25
2022-12-04T13:18:34.591Z,101784.97
2022-12-04T13:21:06.634Z,101797.06
2022-12-04T13:23:39.078Z,101794.38
2022-12-04T13:26:38.251Z,101791.00
2022-12-04T13:29:20.112Z,101781.63
2022-12-04T13:31:53.709Z,101787.63
2022-12-04T13:34:42.825Z,101793.03
2022-12-04T13:37:33.703Z,101783.53
2022-12-04T13:40:18.634Z,101791.34
2022-12-04T13:42:45.251Z,101788.78
2022-12-04T13:45:29.944Z,101790.34
2022-12-04T13:48:03.773Z,101788.56
2022-12-04T13:50:36.710Z,101786.78
2022-12-04T13:53:04.006Z,101789.47
2022-12-04T13:55:37.006Z,101792.78
2022-12-04T13:58:26.383Z,101791.91
2022-12-04T14:01:19.238Z,101799.75
2022-12-04T14:03:55.198Z,101795.47
2022-12-04T14:06:34.043Z,101798.84
2022-12-04T14:09:06.764Z,101803.97
2022-12-04T14:11:46.660Z,101809.78
2022-12-04T14:14:38.989Z,101813.25
2022-12-04T14:17:14.864Z,101812.47
2022-12-04T14:19:51.657Z,101809.91
2022-12-04T14:22:47.028Z,101808.09
2022-12-04T14:25:13.739Z,101814.03
2022-12-04T14:27:52.081Z,101818.06
2022-12-04T14:30:48.315Z,101807.78
2022-12-04T14:33:26.794Z,101803.50
2022-12-04T14:36:02.768Z,101809.56
2022-12-04T14:38:33.120Z,101805.97
2022-12-04T14:41:01.723Z,101807.78
2022-12-04T14:43:34.657Z,101801.72
2022-12-04T14:46:07.465Z,101810.47
2022-12-04T14:48:52.938Z,101808.00
2022-12-04T14:51:30.687Z,101809.69
2022-12-04T14:54:23.544Z,101802.88
2022-12-04T14:57:02.270Z,101803.97
2022-12-04T14:59:40.834Z,101803.97
2022-12-04T15:02:35.860Z,101807.53
2022-12-04T15:05:03.539Z,101804.22
2022-12-04T15:07:32.414Z,101804.09
2022-12-04T15:10:20.334Z,101797.16
2022-12-04T15:12:55.973Z,101800.63
2022-12-04T15:15:27.624Z,101805.88
2022-12-04T15:18:09.645Z,101801.63
2022-12-04T15:20:48.293Z,101804.78
2022-12-04T15:23:18.804Z,101800.38
2022-12-04T15:25:57.685Z,101805.53
2022-12-04T15:28:31.708Z,101801.41
2022-12-04T15:31:02.802Z,101803.19
2022-12-04T15:33:36.333Z,101805.75
2022-12-04T15:36:10.078Z,101815.16
2022-12-04T15:38:37.042Z,101814.25
2022-12-04T15:41:04.423Z,101821.97
2022-12-04T15:43:32.777Z,101817.63
2022-12-04T15:45:59.807Z,101826.09
2022-12-04T15:48:31.189Z,101828.78
2022-12-04T15:51:08.976Z,101823.75
2022-12-04T15:53:38.737Z,101818.97
2022-12-04T15:56:16.335Z,101826.81
2022-12-04T15:58:54.742Z,101825.78
2022-12-04T16:01:22.051Z,101835.31
2022-12-04T16:03:54.358Z,101832.72
2022-12-04T16:06:27.734Z,101828.59
2022-12-04T16:09:00.539Z,101825.22
2022-12-04T16:11:38.879Z,101832.19
2022-12-04T16:14:14.227Z,101842.47
2022-12-04T16:16:46.566Z,101828.03
2022-12-04T16:19:23.781Z,101840.88
2022-12-04T16:21:51.415Z,101836.75
2022-12-04T16:24:18.529Z,101835.97
2022-12-04T16:26:45.049Z,101844.69
2022-12-04T16:29:11.978Z,101854.44
2022-12-04T16:31:38.847Z,101827.03
2022-12-04T16:34:05.928Z,101830.63
2022-12-04T16:36:32.493Z,101824.69
2022-12-04T16:38:59.153Z,101819.53
2022-12-04T16:41:25.854Z,101825.69
2022-12-04T16:43:57.533Z,101824.00
2022-12-04T16:46:26.067Z,101821.91
2022-12-04T16:48:53.081Z,101829.63
2022-12-04T16:51:25.301Z,101822.78
2022-12-04T16:53:52.876Z,101845.38
2022-12-04T16:56:20.376Z,101832.50
2022-12-04T16:58:47.356Z,101838.56
2022-12-04T17:01:33.970Z,101839.66
2022-12-04T17:04:00.832Z,101828.50
2022-12-04T17:06:27.581Z,101829.50
2022-12-04T17:08:54.505Z,101825.38
2022-12-04T17:11:21.835Z,101830.63
2022-12-04T17:13:48.763Z,101833.31
2022-12-04T17:16:19.591Z,101840.47
2022-12-04T17:18:46.629Z,101826.81
2022-12-04T17:21:17.211Z,101818.19
2022-12-04T17:23:44.115Z,101831.16
2022-12-04T17:26:13.486Z,101830.41
2022-12-04T17:28:40.868Z,101832.19
2022-12-04T17:31:20.633Z,101840.69
2022-12-04T17:33:47.787Z,101832.97
2022-12-04T17:36:17.722Z,101829.50
2022-12-04T17:38:45.274Z,101844.28
2022-12-04T17:41:16.776Z,101843.47
2022-12-04T17:43:43.911Z,101840.91
2022-12-04T17:46:21.565Z,101847.19
2022-12-04T17:48:48.913Z,101847.19
2022-12-04T17:51:21.032Z,101855.91
2022-12-04T17:53:48.405Z,101860.38
2022-12-04T17:56:21.570Z,101855.22
2022-12-04T17:58:51.653Z,101857.91
2022-12-04T18:01:21.745Z,101843.38
2022-12-04T18:03:53.210Z,101846.72
2022-12-04T18:06:24.440Z,101852.75
2022-12-04T18:08:52.188Z,101850.19
2022-12-04T18:11:21.088Z,101852.13
2022-12-04T18:13:59.482Z,101855.66
2022-12-04T18:16:26.720Z,101867.75
2022-12-04T18:18:54.426Z,101862.59
2022-12-04T18:21:21.040Z,101855.66
2022-12-04T18:23:47.764Z,101860.81
2022-12-04T18:26:19.533Z,101870.56
2022-12-04T18:28:47.282Z,101873.13
2022-12-04T18:31:15.897Z,101870.66
2022-12-04T18:33:43.507Z,101862.16
2022-12-04T18:36:16.505Z,101872.34
2022-12-04T18:38:44.900Z,101876.50
2022-12-04T18:41:14.326Z,101880.97
2022-12-04T18:43:45.747Z,101874.16
2022-12-04T18:46:15.962Z,101861.28
2022-12-04T18:48:44.742Z,101864.63
2022-12-04T18:51:17.902Z,101867.41
2022-12-04T18:53:44.616Z,101869.13
2022-12-04T18:56:11.164Z,101865.53
2022-12-04T18:58:37.926Z,101859.47
2022-12-04T19:01:09.270Z,101863.84
2022-12-04T19:03:36.407Z,101861.28
2022-12-04T19:06:03.995Z,101870.78
2022-12-04T19:08:33.726Z,101864.63
2022-12-04T19:11:11.692Z,101855.22
2022-12-04T19:13:38.438Z,101872.34
2022-12-04T19:16:10.502Z,101870.78
2022-12-04T19:18:37.464Z,101869.00
2022-12-04T19:21:08.307Z,101870.66
2022-12-04T19:23:35.445Z,101860.25
2022-12-04T19:26:02.163Z,101864.41
2022-12-04T19:28:29.106Z,101867.00
2022-12-04T19:30:56.026Z,101870.56
2022-12-04T19:33:23.921Z,101864.63
2022-12-04T19:36:05.163Z,101868.88
2022-12-04T19:38:33.541Z,101866.44
2022-12-04T19:41:11.550Z,101863.84
2022-12-04T19:43:40.293Z,101869.13
2022-12-04T19:46:08.616Z,101869.19
2022-12-04T19:48:38.159Z,101871.78
2022-12-04T19:51:13.480Z,101867.53
2022-12-04T19:53:41.340Z,101866.63
2022-12-04T19:56:14.410Z,101867.53
2022-12-04T19:58:41.292Z,101868.44
2022-12-04T20:01:11.459Z,101865.84
2022-12-04T20:03:38.677Z,101870.22
2022-12-04T20:06:08.163Z,101868.44
2022-12-04T20:08:35.383Z,101880.63
2022-12-04T20:11:07.742Z,101877.16
2022-12-04T20:13:40.719Z,101864.38
2022-12-04T20:16:10.353Z,101871.31
2022-12-04T20:18:39.644Z,101876.59
2022-12-04T20:21:11.079Z,101880.06
2022-12-04T20:23:50.194Z,101867.88
2022-12-04T20:26:23.764Z,101875.59
2022-12-04T20:28:50.880Z,101869.66
2022-12-04T20:31:22.542Z,101861.03
2022-12-04T20:33:52.843Z,101857.69
2022-12-04T20:36:23.681Z,101859.47
2022-12-04T20:38:56.069Z,101861.13
2022-12-04T20:41:22.833Z,101857.00
2022-12-04T20:43:49.473Z,101863.03
2022-12-04T20:46:20.524Z,101858.78
2022-12-04T20:48:48.888Z,101863.03
2022-12-04T20:51:18.609Z,101864.84
2022-12-04T20:53:47.273Z,101870.09
2022-12-04T20:56:15.373Z,101866.63
2022-12-04T20:58:42.016Z,101872.00
2022-12-04T21:01:15.763Z,101861.69
2022-12-04T21:03:43.272Z,101866.97
2022-12-04T21:06:15.441Z,101867.06
2022-12-04T21:08:59.657Z,101865.47
2022-12-04T21:11:29.169Z,101869.94
2022-12-04T21:14:15.749Z,101874.41
2022-12-04T21:16:43.608Z,101871.19
2022-12-04T21:19:12.379Z,101870.19
2022-12-04T21:21:39.526Z,101870.41
2022-12-04T21:24:08.370Z,101873.09
2022-12-04T21:26:35.829Z,101877.56
2022-12-04T21:29:04.073Z,101865.34
2022-12-04T21:31:31.952Z,101879.44
2022-12-04T21:34:00.135Z,101877.78
2022-12-04T21:36:28.034Z,101866.56
2022-12-04T21:38:57.743Z,101866.78
2022-12-04T21:41:43.767Z,101867.69
2022-12-04T21:44:18.325Z,101868.56
2022-12-04T21:46:46.521Z,101870.34
2022-12-04T21:49:14.170Z,101863.66
2022-12-04T21:51:59.477Z,101865.41
2022-12-04T21:54:27.740Z,101861.19
2022-12-04T21:56:54.934Z,101862.97
2022-12-04T21:59:21.944Z,101864.84
2022-12-04T22:01:48.657Z,101872.69
2022-12-04T22:04:15.704Z,101865.88
2022-12-04T22:06:43.002Z,101870.13
2022-12-04T22:09:12.598Z,101863.41
2022-12-04T22:12:00.950Z,101874.69
2022-12-04T22:14:28.749Z,101874.69
2022-12-04T22:16:56.018Z,101864.50
2022-12-04T22:19:25.083Z,101862.81
2022-12-04T22:21:51.985Z,101865.50
2022-12-04T22:24:20.813Z,101865.63
2022-12-04T22:26:47.805Z,101868.19
2022-12-04T22:29:48.745Z,101874.22
2022-12-04T22:32:01.249Z,101862.25
2022-12-04T22:34:27.813Z,101861.44
2022-12-04T22:36:54.295Z,101866.72
2022-12-04T22:39:21.178Z,101857.31
2022-12-04T22:41:47.730Z,101866.03
2022-12-04T22:44:18.625Z,101872.88
2022-12-04T22:46:45.650Z,101861.78
2022-12-04T22:49:12.455Z,101868.81
2022-12-04T22:51:41.630Z,101865.44
2022-12-04T22:54:13.311Z,101871.50
2022-12-04T22:56:40.426Z,101866.47
2022-12-04T22:59:08.330Z,101868.25
2022-12-04T23:01:35.049Z,101869.16
2022-12-04T23:04:03.153Z,101866.75
2022-12-04T23:06:31.882Z,101860.84
2022-12-04T23:09:02.276Z,101858.16
2022-12-04T23:11:29.450Z,101864.41
2022-12-04T23:14:01.656Z,101868.00
2022-12-04T23:16:32.290Z,101858.56
2022-12-04T23:18:59.283Z,101863.16
2022-12-04T23:21:26.840Z,101862.94
2022-12-04T23:23:54.904Z,101852.91
2022-12-04T23:26:24.820Z,101854.72
2022-12-04T23:28:52.311Z,101853.81
2022-12-04T23:31:19.527Z,101860.97
2022-12-04T23:33:46.092Z,101843.84
2022-12-04T23:36:14.156Z,101860.19
2022-12-04T23:38:42.549Z,101860.41
2022-12-04T23:41:11.513Z,101856.16
2022-12-04T23:43:41.834Z,101854.53
2022-12-04T23:46:13.987Z,101853.69
2022-12-04T23:48:43.396Z,101863.19
2022-12-04T23:51:11.908Z,101859.81
2022-12-04T23:53:38.567Z,101851.28
2022-12-04T23:56:07.691Z,101866.97
2022-12-04T23:58:35.277Z,101850.63
